默认 日期 大小 文件数 浏览量 最新下载 xml
frenzy磁力链接相关资源由用户搜索指令自动获取,结果来源于网络,本站不存储任何资料,亦不承担任何责任,请于24小时内删除,搜索到1949个磁力,用时4ms。
    ... Pop Will Eat Itself Box Frenzy 128kbps.wma": 2560905, "Beaver ... Pop Will Eat Itself Box Frenzy 128kbps.wma": 3893561, "Razorblade ... Pop Will Eat Itself Box Frenzy 128kbps.wma": 1790015, "Love ... Pop Will Eat Itself Box Frenzy 128kbps.wma": 5011089, "Intergalactic ...
创建时间: 2018-12-08 09:57:24 大小:42.72 MB 文件数量:13 热度:5 最近下载:2022-04-23 06:30:54
    ... .COM_XXX_BANNER.jpg": 517081, "_eb-bathroom-frenzy-1-cover.jpg": 96034, "eb ... -bathroom-frenzy-1-cover-clean.jpg": 81415 ... , "eb_bathroom-frenzy-1_olya-c_high_0001.jpg": 887789, "eb_bathroom ...
创建时间: 2018-12-08 14:49:06 大小:49.72 MB 文件数量:66 热度:11 最近下载:2025-05-13 20:58:02
    {"21617_01_hd.mp4": 777595384, "21617_02_hd.mp4": 863513912, "21617_03_hd.mp4": 540438266, "21617_04_hd.mp4": 839341843, "21617_05_hd.mp4": 691047691}
创建时间: 2018-12-08 18:08:40 大小:3.46 GB 文件数量:5 热度:13 最近下载:2023-10-30 19:04:35
    {"Feeding Frenzy 11 SC1.mp4": 395362117, "Feeding Frenzy 11 SC2.mp4": 389058339, "Feeding Frenzy 11 SC3.mp4": 257736596, "Feeding Frenzy 11 SC4.mp4": 339856836, "Feeding Frenzy 11 SC5.mp4": 295749548, "Feeding Frenzy 11 SC6.mp4": 265211757}
创建时间: 2018-12-09 04:11:01 大小:1.81 GB 文件数量:6 热度:11 最近下载:2022-04-23 05:41:00
    {"Power.Rangers.Super.Ninja.Steel.S25E12.Fan.Frenzy.WEBRip.x264.AAC.mp4": 201006258, "Power.Rangers.Super.Ninja.Steel.S25E12.Fan.Frenzy.WEBRip.x264.AAC.srt": 35511}
创建时间: 2018-12-09 07:59:01 大小:191.73 MB 文件数量:2 热度:5 最近下载:2022-04-23 06:12:20
    {"front.jpg": 103604, "jiggly-afd1.nfo": 2708, "jiggly-afd1-cd1.avi": 731357184, "jiggly-afd1-cd2.avi": 730394624}
创建时间: 2018-12-09 08:28:23 大小:1.36 GB 文件数量:4 热度:7 最近下载:2022-04-23 06:41:04
    {"Liona.mp4": 292548734, "Gina Gerson.mp4": 251567833, "Nikita Bellucci.mp4": 370603780, "AV Day-綜合站.url": 127, "Valentina Bianco.mp4": 294678853, "UU裸聊AY456.COM.gif": 1907156, "AVDVD 成人光碟.url": 166, "2048地址發佈頁.txt": 35, "凤凰娛樂~vip1135.url": 253, "凤凰娛樂~ ...
创建时间: 2018-12-09 13:13:34 大小:1.45 GB 文件数量:34 热度:8 最近下载:2024-12-05 08:37:01
    {"FeedingFrenzy2Setup_53.exe": 16158616, "Feeding_Frenzy_2_Crack.rar": 755737, "crack_Feeding Frenzy 2 Shipwreck Showdown.txt": 98}
创建时间: 2018-12-09 18:48:49 大小:16.13 MB 文件数量:3 热度:5 最近下载:2022-04-23 06:14:21
    {"Data": {"logo.jpg": 108548, "Data.pack": 46606162, "LangKR.pack": 11851563}, "100419.ico": 297086, "squall.dll": 491520, "jngload.dll": 364544, "G0100419.jpg": 101992, "HTMLayout.dll": 1032192, "ReflexiveArcade": {"Arcade.dat": 508770, "RAW_002.wdt": 879 ...
创建时间: 2018-12-09 22:44:20 大小:80.07 MB 文件数量:23 热度:8 最近下载:2024-08-28 10:28:02
    ... 127220, "Sasha Grey - Feeding Frenzy 9.avi": 539519336, "Sasha Grey ... - Feeding Frenzy 9.avi.jpg": 951069, "Sasha ... Grey - Feeding Frenzy 9 (Photoset)": {"020.jpg": ... }, "Sasha Grey - Feeding Frenzy 9 (Gallery).avi": 8350072}
创建时间: 2018-12-10 00:24:14 大小:523.94 MB 文件数量:8 热度:10 最近下载:2023-04-24 21:50:19
    {"crack": {"run_1976d.exe": 338200}, "Readme!!.nfo": 748, "www.MEGAtorrent.co.jpg": 114336, "Feeding Frenzy Free (XBOX360) Games.exe": 51604132}
创建时间: 2018-12-10 02:13:44 大小:49.65 MB 文件数量:4 热度:8 最近下载:2025-02-08 11:30:02
    {"feeding frenzy 07a.avi": 733173760, "feeding frenzy 07b.avi": 732596224, "feeding frenzy 07c.avi": 732747776}
创建时间: 2018-12-10 02:48:39 大小:2.05 GB 文件数量:3 热度:7 最近下载:2023-04-24 23:40:04
    {"ktr.csu.12.06.02.rio.lee.weekend.spewing.frenzy.wmv": 805765607}
创建时间: 2018-12-10 12:55:23 大小:768.44 MB 文件数量:1 热度:15 最近下载:2025-08-04 14:09:01
    ... , "Pop Will Eat Itself - Box Frenzy (25th Anniversary Edition).m3u": 2418 ...
创建时间: 2018-12-11 05:20:54 大小:579.78 MB 文件数量:26 热度:4 最近下载:2022-04-23 05:57:21
    {"Shemale Frenzy": {"cover1.jpg": 85674, "cover2.jpg": 25304, "Shemale Frenzy.avi": 1180725248, "Shemale Frenzy.avi.jpg": 384401}}
创建时间: 2018-12-11 09:40:53 大小:1.1 GB 文件数量:4 热度:10 最近下载:2025-01-11 19:59:04
    {"ReadMe.url": 1128, "www.MEGAtorrent.co.jpg": 108312, "Farm Frenzy 2 Family & kids.exe": 123017534, "Farm Frenzy 2 Family & kids.nfo": 1028, "Torrent downloaded from Digtorrent.org.txt": 40}
创建时间: 2018-12-11 10:56:33 大小:117.42 MB 文件数量:5 热度:8 最近下载:2022-11-19 18:14:37
    {"nfo.txt": 299, "frencyd1.mp4": 1518405518, "frencyd2.mp4": 1389215942}
创建时间: 2018-12-11 11:13:56 大小:2.71 GB 文件数量:3 热度:10 最近下载:2025-08-04 21:45:09
    {"BusinessWithPleasure_s01_Toby_MelodyPetite_720p.mp4": 449914556}
创建时间: 2018-12-11 17:41:59 大小:429.07 MB 文件数量:1 热度:10 最近下载:2024-07-01 02:48:02
    {"sample.avi": 75833344, "Downloaded from www.ETTV.tv .txt": 278, "Frenzy.2018.HDRip.XviD.AC3-EVO.nfo": 0, "Frenzy.2018.HDRip.XviD.AC3-EVO-hr.srt": 70461, "Frenzy.2018.CROSubs.HDRip.XviD.AC3-EVO.avi": 1332181262}
创建时间: 2018-12-11 22:18:38 大小:1.31 GB 文件数量:5 热度:6 最近下载:2023-02-25 21:10:11
    {"ReadMe.url": 1128, "www.MEGAtorrent.co.jpg": 108312, "Farm Frenzy 2 Family & kids.exe": 123017534, "Farm Frenzy 2 Family & kids.nfo": 1028, "Torrent downloaded from Digtorrent.org.txt": 40}
创建时间: 2018-12-12 05:41:06 大小:117.42 MB 文件数量:5 热度:7 最近下载:2022-11-19 18:21:48